Kezdőlap
METAR-TAF:

METAR-TAF

Repülőterek :

Conakry, Guinea

földrajzi szélesség: 09-34N, földrajzi hosszúság: 013-37W, magasság: 26 m

Jelenlegi meteorológiai megfigyelések

A jelentés 59 perccel ezelõtt készült, 09:00 UTC
Északkeleti szél 4 kt
Hőmérséklet 25°C
Páratartalom 61%
Légköri nyomás 1012 hPa
Látótávolság: 5000 m
Száraz légköri homály

METAR: GUCY 220900Z 05004KT 5000 HZ NSC 25/17 Q1012 NOSIG

Idő: 09:59 (09:59 UTC)


TAF: hiányzik

Meteorológiai megfigyelések és előrejelzések több, mint 4000 repülőtéren (METAR és TAF jelentéseket).

A térképen piros és sárga pontok jelzik az elérhető meteorológiai állomásokat.

Mozgassa az egeret a pont fölött, hogy megjelenjen az állomás neve.

Azután kattintson az időjárási megfigyelések és előrejelzések megtekintéséhez.

A térkép megváltoztatása: kattintson a fekete keresztel jelölt zöld gombra ráközelítéshez, a vonallal jelölt zöld gombra távolításhoz, vagy a zöld nyilakra a szomszédos térképek eléréséhez.


METAR-TAF: